Time;durP1;ratioP1;P1;durP2;ratioP2;P2;SDS_P1;SDS_P2;PMS_P1;PMS_P2;Temp;Humidity;BMP_temperature;BMP_pressure;BME280_temperature;BME280_humidity;BME280_pressure;Samples;Min_cycle;Max_cycle;Signal;HPM_P1;HPM_P2
2022/05/28 00:00:53;;;;;;;4.67;2.53;;;;;;;;;;4983444;28;20660;-60
2022/05/28 00:03:19;;;;;;;6.03;2.30;;;;;;;;;;4995549;28;20222;-60
2022/05/28 00:05:45;;;;;;;6.73;2.67;;;;;;;;;;4990665;28;21055;-60
2022/05/28 00:08:11;;;;;;;5.23;2.00;;;;;;;;;;4986773;28;20222;-61
2022/05/28 00:10:37;;;;;;;5.33;2.23;;;;;;;;;;4989507;28;20263;-61
2022/05/28 00:13:03;;;;;;;5.03;2.47;;;;;;;;;;4988875;28;20190;-62
2022/05/28 00:15:29;;;;;;;8.00;2.33;;;;;;;;;;4990966;28;20738;-61
2022/05/28 00:17:55;;;;;;;3.77;2.33;;;;;;;;;;4989109;28;20205;-61
2022/05/28 00:20:21;;;;;;;9.17;1.90;;;;;;;;;;4984165;28;20690;-61
2022/05/28 00:22:47;;;;;;;6.90;2.20;;;;;;;;;;4993497;28;20623;-61
2022/05/28 00:25:13;;;;;;;4.97;2.30;;;;;;;;;;4994797;28;20209;-61
2022/05/28 00:27:40;;;;;;;5.77;1.90;;;;;;;;;;4996017;28;20631;-61
2022/05/28 00:30:07;;;;;;;4.30;1.87;;;;;;;;;;4984428;28;20195;-61
2022/05/28 00:32:33;;;;;;;6.50;2.60;;;;;;;;;;4987618;28;20603;-61
2022/05/28 00:34:59;;;;;;;7.40;2.30;;;;;;;;;;4991043;28;20187;-61
2022/05/28 00:37:25;;;;;;;5.03;2.30;;;;;;;;;;4992924;28;20244;-61
2022/05/28 00:39:51;;;;;;;7.20;3.00;;;;;;;;;;4991322;28;20197;-61
2022/05/28 00:42:17;;;;;;;5.47;2.40;;;;;;;;;;4988458;28;20300;-60
2022/05/28 00:44:43;;;;;;;7.40;2.73;;;;;;;;;;4990421;28;20218;-61
2022/05/28 00:47:09;;;;;;;8.53;2.60;;;;;;;;;;4981313;28;20225;-60
2022/05/28 00:49:35;;;;;;;5.10;2.63;;;;;;;;;;4992218;28;20663;-61
2022/05/28 00:52:01;;;;;;;6.23;2.50;;;;;;;;;;4993712;28;20549;-60
2022/05/28 00:54:28;;;;;;;8.50;2.70;;;;;;;;;;4989373;28;20774;-60
2022/05/28 00:56:54;;;;;;;6.80;2.43;;;;;;;;;;4989942;28;20204;-61
2022/05/28 00:59:20;;;;;;;6.67;2.70;;;;;;;;;;4986847;28;20647;-61
2022/05/28 01:01:46;;;;;;;8.27;3.20;;;;;;;;;;4984620;28;20225;-61
2022/05/28 01:04:18;;;;;;;6.80;3.10;;;;;;;;;;4988275;28;20336;-60
2022/05/28 01:06:50;;;;;;;5.17;2.47;;;;;;;;;;4981660;28;20225;-60
2022/05/28 01:09:25;;;;;;;5.40;2.10;;;;;;;;;;4974754;28;20550;-64
2022/05/28 01:12:20;;;;;;;8.63;2.33;;;;;;;;;;4975891;28;20556;-60
2022/05/28 01:14:49;;;;;;;6.07;2.80;;;;;;;;;;4977516;28;20206;-62
2022/05/28 01:17:18;;;;;;;6.03;2.60;;;;;;;;;;4986497;28;20273;-60
2022/05/28 01:19:54;;;;;;;4.93;2.80;;;;;;;;;;4987505;28;20190;-60
2022/05/28 01:22:23;;;;;;;6.03;2.47;;;;;;;;;;4993927;28;20221;-61
2022/05/28 01:24:55;;;;;;;5.40;2.40;;;;;;;;;;4996894;28;20304;-60
2022/05/28 01:27:27;;;;;;;7.07;2.40;;;;;;;;;;4988828;28;20221;-61
2022/05/28 01:29:54;;;;;;;6.53;2.37;;;;;;;;;;4989896;28;20640;-61
2022/05/28 01:32:20;;;;;;;5.57;2.40;;;;;;;;;;4991582;28;21894;-60
2022/05/28 01:34:46;;;;;;;5.57;2.90;;;;;;;;;;4983847;28;20185;-61
2022/05/28 01:37:12;;;;;;;8.23;2.70;;;;;;;;;;4993634;28;20197;-60
2022/05/28 01:39:39;;;;;;;6.03;2.77;;;;;;;;;;4993643;28;20195;-61
2022/05/28 01:42:06;;;;;;;5.00;2.60;;;;;;;;;;4985474;28;20239;-60
2022/05/28 01:44:32;;;;;;;9.00;2.97;;;;;;;;;;4989804;28;20213;-61
2022/05/28 01:46:58;;;;;;;5.87;2.53;;;;;;;;;;4983022;28;20648;-61
2022/05/28 01:49:24;;;;;;;4.73;2.60;;;;;;;;;;4994769;28;20190;-60
2022/05/28 01:51:51;;;;;;;9.13;3.07;;;;;;;;;;4992014;28;20273;-60
2022/05/28 01:54:18;;;;;;;5.93;2.80;;;;;;;;;;4991616;28;20611;-61
2022/05/28 01:56:45;;;;;;;5.00;2.37;;;;;;;;;;4991508;28;20922;-60
2022/05/28 01:59:11;;;;;;;6.97;2.50;;;;;;;;;;4995450;28;20190;-61
2022/05/28 02:01:37;;;;;;;6.43;2.77;;;;;;;;;;4989087;28;20193;-61
2022/05/28 02:04:07;;;;;;;5.33;2.50;;;;;;;;;;4983068;28;20877;-61
2022/05/28 02:06:33;;;;;;;7.87;2.63;;;;;;;;;;4984736;28;20206;-61
2022/05/28 02:08:59;;;;;;;4.87;2.17;;;;;;;;;;4990862;28;20639;-61
2022/05/28 02:11:26;;;;;;;5.67;2.80;;;;;;;;;;4989376;28;20223;-61
2022/05/28 02:13:52;;;;;;;6.47;2.40;;;;;;;;;;4986493;28;20186;-61
2022/05/28 02:16:20;;;;;;;8.47;2.90;;;;;;;;;;4979188;28;20192;-61
2022/05/28 02:18:50;;;;;;;7.43;3.33;;;;;;;;;;4988322;28;20301;-61
2022/05/28 02:21:17;;;;;;;8.87;3.00;;;;;;;;;;4994706;28;20306;-61
2022/05/28 02:23:48;;;;;;;6.23;2.80;;;;;;;;;;4992225;28;20182;-61
2022/05/28 02:26:16;;;;;;;5.30;3.00;;;;;;;;;;4985422;28;20193;-60
2022/05/28 02:28:42;;;;;;;6.07;2.77;;;;;;;;;;4993247;28;20209;-61
2022/05/28 02:31:12;;;;;;;8.03;2.93;;;;;;;;;;4986950;28;20565;-60
2022/05/28 02:33:38;;;;;;;8.27;2.80;;;;;;;;;;4992235;28;20186;-60
2022/05/28 02:36:04;;;;;;;8.20;3.03;;;;;;;;;;4987788;28;20232;-60
2022/05/28 02:38:30;;;;;;;6.40;3.10;;;;;;;;;;4990206;28;20546;-61
2022/05/28 02:40:56;;;;;;;10.50;2.43;;;;;;;;;;4992102;28;20710;-61
2022/05/28 02:43:22;;;;;;;7.20;3.23;;;;;;;;;;4987363;28;20189;-61
2022/05/28 02:45:48;;;;;;;7.17;3.17;;;;;;;;;;4981913;28;20194;-61
2022/05/28 02:48:14;;;;;;;8.87;2.70;;;;;;;;;;4981742;28;20218;-61
2022/05/28 02:50:40;;;;;;;5.10;3.00;;;;;;;;;;4985211;28;20286;-61
2022/05/28 02:53:06;;;;;;;7.37;2.90;;;;;;;;;;4980191;28;20182;-61
2022/05/28 02:55:32;;;;;;;6.40;3.30;;;;;;;;;;4983252;28;20197;-61
2022/05/28 02:57:58;;;;;;;7.60;2.77;;;;;;;;;;4988308;28;20223;-61
2022/05/28 03:00:24;;;;;;;6.43;3.17;;;;;;;;;;4981861;28;20233;-61
2022/05/28 03:02:50;;;;;;;5.93;2.60;;;;;;;;;;4989574;28;20214;-60
2022/05/28 03:05:18;;;;;;;10.90;3.33;;;;;;;;;;4991462;28;20268;-61
2022/05/28 03:07:44;;;;;;;9.43;3.30;;;;;;;;;;4986448;28;20210;-60
2022/05/28 03:10:11;;;;;;;8.13;3.43;;;;;;;;;;4992193;28;20196;-61
2022/05/28 03:12:37;;;;;;;6.43;2.77;;;;;;;;;;4987793;28;20189;-61
2022/05/28 03:15:03;;;;;;;7.13;2.77;;;;;;;;;;4979928;28;20186;-61
2022/05/28 03:17:29;;;;;;;5.43;3.00;;;;;;;;;;4990426;28;20190;-60
2022/05/28 03:19:55;;;;;;;8.13;3.17;;;;;;;;;;4994566;28;20663;-61
2022/05/28 03:22:21;;;;;;;13.53;3.13;;;;;;;;;;4992572;28;20185;-61
2022/05/28 03:24:47;;;;;;;9.07;3.30;;;;;;;;;;4986584;28;20189;-61
2022/05/28 03:27:13;;;;;;;7.90;3.13;;;;;;;;;;4997547;28;20300;-60
2022/05/28 03:29:38;;;;;;;5.60;3.03;;;;;;;;;;4991426;28;20197;-60
2022/05/28 03:32:05;;;;;;;8.23;3.77;;;;;;;;;;4986015;28;20591;-61
2022/05/28 03:34:31;;;;;;;6.37;2.73;;;;;;;;;;4994111;28;20878;-61
2022/05/28 03:36:57;;;;;;;10.63;3.23;;;;;;;;;;4998348;28;20542;-61
2022/05/28 03:39:23;;;;;;;7.67;3.20;;;;;;;;;;4995357;28;20244;-61
2022/05/28 03:41:48;;;;;;;7.87;2.87;;;;;;;;;;4992059;28;20281;-61
2022/05/28 03:44:14;;;;;;;8.37;3.13;;;;;;;;;;4987371;28;20574;-61
2022/05/28 03:46:42;;;;;;;8.67;2.80;;;;;;;;;;4974664;28;20955;-60
2022/05/28 03:49:09;;;;;;;5.83;2.77;;;;;;;;;;4981140;28;20594;-60
2022/05/28 03:51:35;;;;;;;5.90;2.73;;;;;;;;;;4988161;28;20182;-60
2022/05/28 03:54:02;;;;;;;8.37;3.03;;;;;;;;;;4992402;28;20192;-61
2022/05/28 03:56:29;;;;;;;9.40;3.43;;;;;;;;;;4997964;28;20276;-61
2022/05/28 03:58:55;;;;;;;6.97;2.73;;;;;;;;;;4989775;28;20190;-61
2022/05/28 04:01:21;;;;;;;8.57;2.70;;;;;;;;;;4980159;28;20194;-61
2022/05/28 04:03:47;;;;;;;15.50;3.10;;;;;;;;;;4993213;28;20244;-62
2022/05/28 04:06:13;;;;;;;8.83;3.70;;;;;;;;;;4991934;28;20272;-61
2022/05/28 04:08:40;;;;;;;9.40;3.30;;;;;;;;;;4992871;28;20185;-61
2022/05/28 04:11:06;;;;;;;7.30;2.90;;;;;;;;;;4990243;28;20194;-60
2022/05/28 04:13:31;;;;;;;9.00;3.20;;;;;;;;;;4989401;28;20189;-61
2022/05/28 04:15:57;;;;;;;7.13;2.97;;;;;;;;;;4982806;28;20186;-61
2022/05/28 04:18:23;;;;;;;8.37;3.07;;;;;;;;;;4988251;28;20730;-60
2022/05/28 04:20:49;;;;;;;10.03;3.23;;;;;;;;;;4988559;28;20638;-61
2022/05/28 04:23:16;;;;;;;6.10;2.90;;;;;;;;;;4988478;28;20194;-61
2022/05/28 04:25:41;;;;;;;9.33;2.80;;;;;;;;;;4988468;28;20204;-61
2022/05/28 04:28:09;;;;;;;11.40;3.17;;;;;;;;;;4981940;28;20230;-62
2022/05/28 04:30:35;;;;;;;9.77;3.07;;;;;;;;;;4981584;28;20195;-61
2022/05/28 04:33:01;;;;;;;8.20;3.50;;;;;;;;;;4982445;28;20182;-61
2022/05/28 04:35:27;;;;;;;12.03;3.63;;;;;;;;;;4986030;28;20288;-61
2022/05/28 04:37:53;;;;;;;6.30;3.10;;;;;;;;;;4991100;28;20268;-61
2022/05/28 04:40:19;;;;;;;7.57;3.20;;;;;;;;;;4993815;28;20194;-61
2022/05/28 04:42:45;;;;;;;9.50;3.90;;;;;;;;;;4986567;28;20202;-61
2022/05/28 04:45:11;;;;;;;9.30;3.20;;;;;;;;;;4985060;28;20221;-61
2022/05/28 04:47:37;;;;;;;9.67;3.33;;;;;;;;;;4991948;28;20302;-61
2022/05/28 04:50:03;;;;;;;6.93;2.80;;;;;;;;;;4988105;28;20632;-61
2022/05/28 04:52:29;;;;;;;9.87;3.27;;;;;;;;;;4989012;28;20207;-60
2022/05/28 04:54:55;;;;;;;7.53;2.87;;;;;;;;;;4986534;28;20593;-61
2022/05/28 04:57:21;;;;;;;8.83;3.13;;;;;;;;;;4987368;28;20236;-60
2022/05/28 04:59:47;;;;;;;11.83;3.37;;;;;;;;;;4991795;28;20678;-60
2022/05/28 05:02:15;;;;;;;6.87;3.00;;;;;;;;;;4987313;28;20182;-61
2022/05/28 05:04:41;;;;;;;10.83;3.30;;;;;;;;;;4979628;28;20249;-61
2022/05/28 05:07:07;;;;;;;8.50;3.00;;;;;;;;;;4984761;28;20210;-60
2022/05/28 05:09:33;;;;;;;7.27;3.50;;;;;;;;;;4988488;28;20239;-61
2022/05/28 05:11:59;;;;;;;8.47;3.30;;;;;;;;;;4987218;28;20221;-61
2022/05/28 05:14:25;;;;;;;7.63;4.00;;;;;;;;;;4990636;28;20201;-61
2022/05/28 05:16:51;;;;;;;7.57;2.90;;;;;;;;;;4985904;28;20192;-61
2022/05/28 05:19:17;;;;;;;10.17;3.20;;;;;;;;;;4988671;28;20247;-61
2022/05/28 05:21:42;;;;;;;6.00;3.70;;;;;;;;;;4990129;28;20186;-61
2022/05/28 05:24:08;;;;;;;8.00;3.23;;;;;;;;;;4989513;28;20189;-61
2022/05/28 05:26:34;;;;;;;10.10;3.27;;;;;;;;;;4988650;28;20221;-61
2022/05/28 05:29:00;;;;;;;9.10;3.27;;;;;;;;;;4992095;28;20209;-61
2022/05/28 05:31:26;;;;;;;9.73;3.60;;;;;;;;;;4978488;28;20589;-61
2022/05/28 05:33:52;;;;;;;13.30;4.43;;;;;;;;;;4987724;28;20323;-61
2022/05/28 05:36:18;;;;;;;8.73;3.50;;;;;;;;;;4993003;28;20220;-60
2022/05/28 05:38:44;;;;;;;8.77;3.07;;;;;;;;;;4990544;28;20193;-61
2022/05/28 05:41:10;;;;;;;8.33;3.03;;;;;;;;;;4992527;28;20228;-62
2022/05/28 05:43:36;;;;;;;14.40;3.20;;;;;;;;;;4986946;28;20206;-61
2022/05/28 05:46:02;;;;;;;9.83;3.70;;;;;;;;;;4991198;28;21214;-61
2022/05/28 05:48:28;;;;;;;10.03;3.37;;;;;;;;;;4990970;28;20212;-62
2022/05/28 05:50:54;;;;;;;8.30;3.13;;;;;;;;;;4989755;28;20652;-61
2022/05/28 05:53:20;;;;;;;8.63;3.57;;;;;;;;;;4988164;28;20639;-61
2022/05/28 05:55:46;;;;;;;7.87;3.40;;;;;;;;;;4989021;28;20190;-61
2022/05/28 05:58:12;;;;;;;11.10;3.80;;;;;;;;;;4978137;28;20194;-61
2022/05/28 06:00:39;;;;;;;9.90;3.50;;;;;;;;;;4971399;28;20187;-61
2022/05/28 06:03:05;;;;;;;10.20;3.50;;;;;;;;;;4987396;28;20197;-61
2022/05/28 06:05:31;;;;;;;10.67;3.33;;;;;;;;;;4983889;28;20590;-61
2022/05/28 06:07:57;;;;;;;11.03;3.67;;;;;;;;;;4986990;28;20198;-61
2022/05/28 06:10:23;;;;;;;7.37;3.13;;;;;;;;;;4989635;28;20186;-61
2022/05/28 06:12:49;;;;;;;13.03;3.20;;;;;;;;;;4993667;28;20993;-61
2022/05/28 06:15:15;;;;;;;7.03;2.70;;;;;;;;;;4995209;28;20177;-60
2022/05/28 06:17:41;;;;;;;8.23;2.80;;;;;;;;;;4966410;28;20222;-61
2022/05/28 06:20:08;;;;;;;11.07;3.30;;;;;;;;;;4981295;28;20204;-61
2022/05/28 06:22:34;;;;;;;7.13;2.67;;;;;;;;;;4981859;28;20194;-61
2022/05/28 06:24:59;;;;;;;12.33;3.30;;;;;;;;;;4986892;28;20529;-61
2022/05/28 06:27:25;;;;;;;5.97;3.03;;;;;;;;;;4988145;28;20229;-61
2022/05/28 06:29:52;;;;;;;6.50;2.80;;;;;;;;;;4975653;28;20236;-61
2022/05/28 06:32:18;;;;;;;6.83;2.77;;;;;;;;;;4979597;28;20225;-60
2022/05/28 06:34:44;;;;;;;6.73;2.50;;;;;;;;;;4987827;28;20774;-61
2022/05/28 06:37:12;;;;;;;9.37;3.00;;;;;;;;;;4968162;28;20570;-62
2022/05/28 06:39:38;;;;;;;8.47;2.73;;;;;;;;;;4980322;28;20659;-62
2022/05/28 06:42:04;;;;;;;5.97;2.40;;;;;;;;;;4981511;28;20189;-61
2022/05/28 06:44:30;;;;;;;8.83;2.30;;;;;;;;;;4989006;28;20311;-62
2022/05/28 06:46:56;;;;;;;8.13;3.20;;;;;;;;;;4986457;28;20220;-63
2022/05/28 06:49:22;;;;;;;4.10;1.70;;;;;;;;;;4988891;28;20186;-62
2022/05/28 06:51:48;;;;;;;8.40;2.50;;;;;;;;;;4984816;28;20186;-61
2022/05/28 06:54:14;;;;;;;5.80;1.80;;;;;;;;;;4983284;28;20213;-62
2022/05/28 06:56:40;;;;;;;5.40;2.20;;;;;;;;;;4986843;28;20190;-62
2022/05/28 06:59:06;;;;;;;5.77;2.13;;;;;;;;;;4990650;28;20208;-62
2022/05/28 07:01:32;;;;;;;4.80;1.73;;;;;;;;;;4991279;28;20205;-62
2022/05/28 07:03:58;;;;;;;6.47;2.40;;;;;;;;;;4994960;28;20226;-62
2022/05/28 07:06:24;;;;;;;5.50;1.90;;;;;;;;;;4995809;28;20190;-62
2022/05/28 07:08:50;;;;;;;4.97;2.00;;;;;;;;;;4998880;28;20213;-62
2022/05/28 07:11:17;;;;;;;3.40;1.73;;;;;;;;;;4990528;28;20194;-66
2022/05/28 07:13:43;;;;;;;5.50;1.90;;;;;;;;;;4993937;28;20624;-62
2022/05/28 07:16:09;;;;;;;6.18;2.08;;;;;;;;;;4990073;28;20553;-62
2022/05/28 07:18:35;;;;;;;6.68;1.85;;;;;;;;;;4994980;28;20867;-62
2022/05/28 07:21:01;;;;;;;7.15;2.00;;;;;;;;;;4991359;28;20625;-62
2022/05/28 07:23:28;;;;;;;4.13;2.00;;;;;;;;;;4987891;28;20226;-57
2022/05/28 07:26:00;;;;;;;5.18;1.83;;;;;;;;;;4997187;28;20636;-57
2022/05/28 07:28:30;;;;;;;4.63;1.98;;;;;;;;;;4991346;28;20217;-57
2022/05/28 07:31:18;;;;;;;5.43;1.77;;;;;;;;;;4993114;28;20198;-57
2022/05/28 07:33:44;;;;;;;6.37;2.53;;;;;;;;;;4997262;28;20241;-57
2022/05/28 07:36:11;;;;;;;4.23;2.50;;;;;;;;;;4996923;28;20188;-57
2022/05/28 07:38:37;;;;;;;5.13;2.60;;;;;;;;;;4998864;28;20201;-57
2022/05/28 07:41:04;;;;;;;8.20;2.60;;;;;;;;;;4996206;28;21157;-57
2022/05/28 07:43:30;;;;;;;8.83;2.87;;;;;;;;;;4996893;28;20714;-57
2022/05/28 07:45:56;;;;;;;9.17;2.47;;;;;;;;;;4996938;28;20284;-57
2022/05/28 07:48:22;;;;;;;5.53;2.10;;;;;;;;;;4996214;28;20280;-56
2022/05/28 07:50:48;;;;;;;5.33;1.80;;;;;;;;;;4995834;28;20602;-57
2022/05/28 07:53:14;;;;;;;4.30;1.90;;;;;;;;;;4996320;28;20190;-57
2022/05/28 07:55:40;;;;;;;3.47;2.00;;;;;;;;;;4997060;28;20175;-57
2022/05/28 07:58:10;;;;;;;6.23;1.90;;;;;;;;;;4994410;28;20203;-56
2022/05/28 08:00:40;;;;;;;6.10;2.30;;;;;;;;;;4992483;28;20186;-57
2022/05/28 08:03:06;;;;;;;4.03;2.03;;;;;;;;;;4991560;28;20323;-56
2022/05/28 08:05:32;;;;;;;4.43;1.97;;;;;;;;;;4981924;28;20196;-58
2022/05/28 08:07:58;;;;;;;4.70;2.00;;;;;;;;;;4995593;28;20217;-58
2022/05/28 08:10:24;;;;;;;6.37;2.07;;;;;;;;;;4993836;28;20209;-58
2022/05/28 08:12:50;;;;;;;4.90;2.20;;;;;;;;;;4991217;28;20189;-58
2022/05/28 08:15:16;;;;;;;3.93;1.90;;;;;;;;;;4994153;28;20182;-59
2022/05/28 08:17:42;;;;;;;4.37;1.93;;;;;;;;;;4996697;28;20560;-58
2022/05/28 08:20:08;;;;;;;3.20;1.73;;;;;;;;;;4993920;28;20186;-57
2022/05/28 08:25:19;;;;;;;6.93;1.90;;;;;;;;;;4994481;28;20498;-58
2022/05/28 08:27:45;;;;;;;6.93;2.00;;;;;;;;;;4995348;28;20722;-59
2022/05/28 08:30:11;;;;;;;6.57;2.13;;;;;;;;;;4995146;28;20183;-60
2022/05/28 08:32:37;;;;;;;8.93;1.83;;;;;;;;;;4993980;28;20197;-65
2022/05/28 08:35:04;;;;;;;4.67;1.80;;;;;;;;;;4988949;28;20643;-65
2022/05/28 08:37:30;;;;;;;4.90;2.00;;;;;;;;;;4989553;28;20319;-60
2022/05/28 08:39:56;;;;;;;6.97;2.27;;;;;;;;;;4992677;28;20229;-59
2022/05/28 08:42:23;;;;;;;7.17;2.13;;;;;;;;;;4993900;28;20222;-60
2022/05/28 08:44:49;;;;;;;8.77;2.33;;;;;;;;;;4995707;28;20236;-58
2022/05/28 08:47:15;;;;;;;3.30;1.90;;;;;;;;;;4995907;28;20296;-60
2022/05/28 08:49:41;;;;;;;3.60;1.90;;;;;;;;;;4992671;28;20265;-63
2022/05/28 08:52:12;;;;;;;5.00;1.80;;;;;;;;;;4987243;28;20276;-62
2022/05/28 08:54:42;;;;;;;5.88;1.92;;;;;;;;;;4993923;28;20201;-60
2022/05/28 08:57:10;;;;;;;4.95;1.90;;;;;;;;;;4992497;28;20198;-62
2022/05/28 08:59:55;;;;;;;3.83;1.88;;;;;;;;;;4999555;28;20189;-60
2022/05/28 09:02:40;;;;;;;8.00;1.83;;;;;;;;;;4985909;28;20264;-60
2022/05/28 09:05:22;;;;;;;3.03;1.63;;;;;;;;;;4992572;28;20249;-57
2022/05/28 09:07:48;;;;;;;3.85;1.73;;;;;;;;;;4988235;28;20209;-57
2022/05/28 09:10:14;;;;;;;2.63;1.70;;;;;;;;;;4984348;28;20869;-60
2022/05/28 09:12:42;;;;;;;2.83;1.63;;;;;;;;;;4981497;28;20742;-57
2022/05/28 09:15:09;;;;;;;2.90;1.50;;;;;;;;;;4988960;28;20193;-57
2022/05/28 09:17:35;;;;;;;4.72;1.90;;;;;;;;;;4988360;28;20244;-61
2022/05/28 09:20:08;;;;;;;3.05;1.77;;;;;;;;;;4991724;28;20269;-60
2022/05/28 09:22:34;;;;;;;2.63;1.70;;;;;;;;;;4979296;28;20221;-60
2022/05/28 09:25:00;;;;;;;3.55;1.77;;;;;;;;;;4984743;28;20282;-60
2022/05/28 09:28:06;;;;;;;7.45;1.58;;;;;;;;;;4985956;28;20233;-56
2022/05/28 09:30:32;;;;;;;4.28;1.50;;;;;;;;;;4955946;28;20183;-60
2022/05/28 09:33:01;;;;;;;3.35;1.45;;;;;;;;;;4953603;28;20187;-56
2022/05/28 09:35:37;;;;;;;4.82;1.38;;;;;;;;;;4974343;28;20202;-56
2022/05/28 09:38:11;;;;;;;6.03;1.58;;;;;;;;;;4994009;28;20553;-56
2022/05/28 09:40:58;;;;;;;3.00;1.13;;;;;;;;;;4986900;28;20189;-57
2022/05/28 09:43:42;;;;;;;4.18;1.30;;;;;;;;;;4983165;28;20217;-60
2022/05/28 09:46:14;;;;;;;5.82;1.38;;;;;;;;;;4985043;28;20191;-61
2022/05/28 09:48:40;;;;;;;4.68;1.52;;;;;;;;;;4989100;28;20440;-63
2022/05/28 09:51:20;;;;;;;2.92;1.40;;;;;;;;;;4985032;28;20201;-61
2022/05/28 09:56:36;;;;;;;3.80;1.70;;;;;;;;;;4988351;28;20334;-60
2022/05/28 09:59:06;;;;;;;2.60;1.58;;;;;;;;;;4987052;28;20178;-61
2022/05/28 10:01:34;;;;;;;4.13;1.50;;;;;;;;;;4981562;28;20201;-62
2022/05/28 10:06:48;;;;;;;3.78;1.65;;;;;;;;;;4979498;28;20287;-62
2022/05/28 10:09:24;;;;;;;3.50;1.30;;;;;;;;;;4979593;28;20181;-59
2022/05/28 10:11:51;;;;;;;3.45;1.33;;;;;;;;;;4964589;28;20246;-59
2022/05/28 10:14:17;;;;;;;3.88;1.10;;;;;;;;;;4961807;28;20182;-58
2022/05/28 10:16:46;;;;;;;4.60;1.55;;;;;;;;;;4981518;28;20296;-58
2022/05/28 10:19:31;;;;;;;2.35;1.10;;;;;;;;;;4974726;28;20232;-60
2022/05/28 10:21:58;;;;;;;5.68;1.42;;;;;;;;;;4989266;28;20178;-61
2022/05/28 10:24:24;;;;;;;4.13;1.50;;;;;;;;;;4991271;28;20193;-60
2022/05/28 10:26:53;;;;;;;2.13;1.10;;;;;;;;;;4983568;28;20265;-63
2022/05/28 10:29:24;;;;;;;2.77;1.37;;;;;;;;;;4980539;28;20611;-63
2022/05/28 10:31:50;;;;;;;7.77;1.57;;;;;;;;;;4983449;28;20633;-61
2022/05/28 10:34:22;;;;;;;1.88;1.02;;;;;;;;;;4986289;28;20907;-62
2022/05/28 10:36:48;;;;;;;4.35;1.48;;;;;;;;;;4972400;28;20563;-60
2022/05/28 10:39:16;;;;;;;1.90;1.10;;;;;;;;;;4974702;28;20190;-62
2022/05/28 10:41:42;;;;;;;4.40;1.13;;;;;;;;;;4985733;28;20202;-61
2022/05/28 10:44:08;;;;;;;4.63;1.27;;;;;;;;;;4964047;28;20189;-61
2022/05/28 10:46:38;;;;;;;2.30;1.40;;;;;;;;;;4977300;28;20549;-62
2022/05/28 10:49:07;;;;;;;4.70;1.30;;;;;;;;;;4980350;28;20276;-61
2022/05/28 10:51:36;;;;;;;2.85;1.40;;;;;;;;;;4978197;28;20178;-63
2022/05/28 10:54:21;;;;;;;7.00;3.40;;;;;;;;;;4962684;28;20370;-62
2022/05/28 10:57:01;;;;;;;5.23;3.03;;;;;;;;;;4982934;28;20659;-63
2022/05/28 10:59:33;;;;;;;3.83;2.10;;;;;;;;;;4975524;28;20212;-62
2022/05/28 11:02:07;;;;;;;3.13;1.95;;;;;;;;;;4969862;28;20201;-62
2022/05/28 11:05:02;;;;;;;3.67;1.52;;;;;;;;;;4980018;28;20761;-62
2022/05/28 11:07:43;;;;;;;1.77;1.20;;;;;;;;;;4952948;28;20213;-62
2022/05/28 11:10:17;;;;;;;3.38;1.35;;;;;;;;;;4981761;28;20693;-62
2022/05/28 11:12:43;;;;;;;3.00;1.42;;;;;;;;;;4977528;28;20235;-62
2022/05/28 11:15:25;;;;;;;2.47;1.02;;;;;;;;;;4975214;28;20187;-62
2022/05/28 11:18:17;;;;;;;2.70;1.25;;;;;;;;;;4983544;28;20189;-63
2022/05/28 11:20:43;;;;;;;2.28;1.45;;;;;;;;;;4987741;28;20256;-62
2022/05/28 11:23:16;;;;;;;4.18;1.95;;;;;;;;;;4985368;28;20190;-63
2022/05/28 11:25:45;;;;;;;5.63;1.42;;;;;;;;;;4985958;28;20532;-62
2022/05/28 11:28:22;;;;;;;2.67;1.17;;;;;;;;;;4976722;28;20231;-63
2022/05/28 11:30:48;;;;;;;3.35;1.40;;;;;;;;;;4981104;28;20183;-63
2022/05/28 11:33:16;;;;;;;1.58;1.10;;;;;;;;;;4975902;28;20664;-62
2022/05/28 11:35:49;;;;;;;3.97;1.50;;;;;;;;;;4988466;28;20257;-62
2022/05/28 11:38:14;;;;;;;2.83;1.23;;;;;;;;;;4983156;28;20189;-62
2022/05/28 11:41:07;;;;;;;2.80;1.43;;;;;;;;;;4993572;28;20202;-62
2022/05/28 11:43:40;;;;;;;2.43;1.17;;;;;;;;;;4965940;28;20608;-62
2022/05/28 11:46:25;;;;;;;2.93;1.30;;;;;;;;;;4987916;28;20189;-63
2022/05/28 11:51:44;;;;;;;2.97;1.50;;;;;;;;;;4985413;28;20193;-59
2022/05/28 11:54:10;;;;;;;3.20;1.70;;;;;;;;;;4985870;28;21631;-63
2022/05/28 11:56:36;;;;;;;4.93;1.37;;;;;;;;;;4991941;28;20213;-62
2022/05/28 11:59:06;;;;;;;2.97;1.30;;;;;;;;;;4975691;28;20205;-62
2022/05/28 12:01:32;;;;;;;4.03;1.43;;;;;;;;;;4985223;28;20190;-62
2022/05/28 12:03:58;;;;;;;3.80;1.30;;;;;;;;;;4995393;28;20234;-62
2022/05/28 12:06:26;;;;;;;5.20;1.33;;;;;;;;;;4982060;28;20630;-59
2022/05/28 12:08:58;;;;;;;4.10;1.40;;;;;;;;;;4977466;28;20202;-59
2022/05/28 12:11:30;;;;;;;2.67;1.40;;;;;;;;;;4985797;28;20202;-60
2022/05/28 12:13:57;;;;;;;4.47;1.77;;;;;;;;;;4986496;28;20185;-60
2022/05/28 12:16:23;;;;;;;4.35;1.30;;;;;;;;;;4990691;28;20249;-60
2022/05/28 12:18:59;;;;;;;2.28;1.38;;;;;;;;;;4980175;28;20789;-61
2022/05/28 12:21:29;;;;;;;3.15;1.60;;;;;;;;;;4990391;28;20182;-57
2022/05/28 12:24:13;;;;;;;4.00;1.63;;;;;;;;;;4989945;28;20705;-57
2022/05/28 12:27:06;;;;;;;4.28;1.80;;;;;;;;;;4989963;28;20185;-58
2022/05/28 12:32:18;;;;;;;4.20;1.92;;;;;;;;;;4985494;28;20320;-60
2022/05/28 12:34:52;;;;;;;5.00;1.83;;;;;;;;;;4988794;28;20223;-57
2022/05/28 12:37:19;;;;;;;4.57;1.85;;;;;;;;;;4983039;28;20208;-58
2022/05/28 12:39:48;;;;;;;5.57;1.50;;;;;;;;;;4987079;28;20190;-58
2022/05/28 12:42:19;;;;;;;3.60;1.40;;;;;;;;;;4978511;28;20185;-59
2022/05/28 12:44:49;;;;;;;3.05;1.42;;;;;;;;;;4998491;28;20192;-58
2022/05/28 12:47:22;;;;;;;2.28;1.00;;;;;;;;;;4993444;28;20261;-58
2022/05/28 12:49:56;;;;;;;3.13;1.30;;;;;;;;;;4986664;28;20186;-58
2022/05/28 12:52:39;;;;;;;2.78;1.33;;;;;;;;;;4997029;28;20190;-59
2022/05/28 12:55:11;;;;;;;3.42;1.52;;;;;;;;;;4991513;28;20639;-56
2022/05/28 12:57:37;;;;;;;2.97;1.23;;;;;;;;;;4989808;28;20220;-56
2022/05/28 13:00:08;;;;;;;2.83;1.52;;;;;;;;;;4995004;28;20189;-56
2022/05/28 13:02:38;;;;;;;4.75;1.73;;;;;;;;;;4985689;28;20194;-55
2022/05/28 13:05:09;;;;;;;3.13;1.52;;;;;;;;;;4998527;28;20234;-56
2022/05/28 13:07:42;;;;;;;3.63;1.40;;;;;;;;;;4994355;28;20381;-56
2022/05/28 13:10:19;;;;;;;3.42;1.63;;;;;;;;;;4986375;28;20202;-56
2022/05/28 13:12:52;;;;;;;3.40;1.58;;;;;;;;;;4990337;28;20182;-57
2022/05/28 13:15:33;;;;;;;2.60;1.63;;;;;;;;;;4990398;28;20183;-56
2022/05/28 13:18:14;;;;;;;2.13;1.60;;;;;;;;;;4997126;28;20194;-57
2022/05/28 13:20:43;;;;;;;2.33;1.60;;;;;;;;;;4985511;28;20201;-57
2022/05/28 13:23:18;;;;;;;3.78;1.73;;;;;;;;;;4996574;28;20190;-56
2022/05/28 13:26:03;;;;;;;5.03;1.40;;;;;;;;;;4986486;28;20189;-56
2022/05/28 13:28:29;;;;;;;7.32;1.88;;;;;;;;;;4986285;28;20221;-57
2022/05/28 13:31:00;;;;;;;3.65;1.60;;;;;;;;;;4982995;28;20183;-55
2022/05/28 13:33:26;;;;;;;1.80;1.60;;;;;;;;;;4986114;28;20182;-55
2022/05/28 13:35:53;;;;;;;3.53;1.85;;;;;;;;;;4983873;28;20209;-56
2022/05/28 13:38:21;;;;;;;4.82;1.90;;;;;;;;;;4984105;28;20205;-57
2022/05/28 13:40:47;;;;;;;4.43;2.08;;;;;;;;;;4986784;28;20520;-57
2022/05/28 13:43:14;;;;;;;4.75;2.13;;;;;;;;;;4979875;28;20189;-56
2022/05/28 13:45:41;;;;;;;4.75;2.17;;;;;;;;;;4983247;28;20217;-57
2022/05/28 13:48:11;;;;;;;5.63;2.20;;;;;;;;;;4981070;28;20309;-56
2022/05/28 13:50:38;;;;;;;4.38;2.60;;;;;;;;;;4988220;28;20259;-57
2022/05/28 13:53:04;;;;;;;7.68;2.33;;;;;;;;;;4990315;28;20240;-56
2022/05/28 13:55:30;;;;;;;3.90;1.98;;;;;;;;;;4992783;28;20194;-56
2022/05/28 13:57:56;;;;;;;3.28;2.35;;;;;;;;;;4991119;28;20204;-57
2022/05/28 14:00:25;;;;;;;4.35;2.33;;;;;;;;;;4992425;28;20189;-57
2022/05/28 14:03:04;;;;;;;3.85;2.40;;;;;;;;;;4983482;28;20189;-58
2022/05/28 14:05:31;;;;;;;2.88;2.17;;;;;;;;;;4987060;28;20292;-60
2022/05/28 14:07:59;;;;;;;6.68;2.20;;;;;;;;;;4994397;28;20661;-59
2022/05/28 14:10:26;;;;;;;4.57;2.30;;;;;;;;;;4991719;28;20743;-59
2022/05/28 14:12:52;;;;;;;3.67;2.20;;;;;;;;;;4996688;28;20190;-59
2022/05/28 14:15:19;;;;;;;3.10;2.40;;;;;;;;;;4987136;28;20559;-59
2022/05/28 14:17:45;;;;;;;5.65;2.38;;;;;;;;;;4986940;28;20213;-59
2022/05/28 14:20:18;;;;;;;3.58;2.50;;;;;;;;;;4983662;28;20234;-60
2022/05/28 14:22:46;;;;;;;3.38;2.05;;;;;;;;;;4992719;28;20600;-59
2022/05/28 14:25:14;;;;;;;4.22;2.22;;;;;;;;;;4993588;28;20273;-60
2022/05/28 14:27:40;;;;;;;9.40;2.35;;;;;;;;;;4995284;28;20618;-57
2022/05/28 14:30:06;;;;;;;4.70;1.75;;;;;;;;;;4988954;28;20191;-59
2022/05/28 14:32:34;;;;;;;3.92;1.83;;;;;;;;;;4982064;28;20240;-58
2022/05/28 14:35:00;;;;;;;2.60;1.80;;;;;;;;;;4992980;28;20190;-59
2022/05/28 14:37:27;;;;;;;4.05;2.15;;;;;;;;;;4995047;28;20268;-59
2022/05/28 14:39:53;;;;;;;6.82;2.33;;;;;;;;;;4992093;28;20745;-59
2022/05/28 14:42:28;;;;;;;4.15;2.20;;;;;;;;;;4994374;28;20682;-59
2022/05/28 14:44:54;;;;;;;4.72;2.33;;;;;;;;;;5002735;28;20200;-60
2022/05/28 14:47:22;;;;;;;2.65;2.00;;;;;;;;;;4989432;28;20420;-57
2022/05/28 14:49:50;;;;;;;4.18;1.88;;;;;;;;;;4988085;28;20338;-56
2022/05/28 14:52:17;;;;;;;3.28;2.17;;;;;;;;;;4985413;28;20190;-56
2022/05/28 14:54:53;;;;;;;6.03;2.58;;;;;;;;;;4984111;28;20194;-56
2022/05/28 14:57:21;;;;;;;4.90;2.75;;;;;;;;;;4984144;28;20199;-56
2022/05/28 14:59:47;;;;;;;6.53;2.10;;;;;;;;;;4985637;28;20205;-56
2022/05/28 15:02:17;;;;;;;3.50;2.10;;;;;;;;;;4990440;28;20197;-56
2022/05/28 15:04:43;;;;;;;4.20;2.33;;;;;;;;;;4986365;28;20301;-56